sensor_id;sensor_type;location;lat;lon;timestamp;P1;durP1;ratioP1;P2;durP2;ratioP2
66437;SDS011;54537;47.972;11.662;2023-05-07T00:02:18;8.57;;;5.22;;
66437;SDS011;54537;47.972;11.662;2023-05-07T00:04:45;8.93;;;5.30;;
66437;SDS011;54537;47.972;11.662;2023-05-07T00:07:11;8.57;;;5.35;;
66437;SDS011;54537;47.972;11.662;2023-05-07T00:09:37;11.18;;;5.10;;
66437;SDS011;54537;47.972;11.662;2023-05-07T00:12:06;17.67;;;10.00;;
66437;SDS011;54537;47.972;11.662;2023-05-07T00:14:33;8.75;;;5.40;;
66437;SDS011;54537;47.972;11.662;2023-05-07T00:17:00;8.65;;;4.80;;
66437;SDS011;54537;47.972;11.662;2023-05-07T00:19:26;8.45;;;3.95;;
66437;SDS011;54537;47.972;11.662;2023-05-07T00:21:52;9.15;;;4.95;;
66437;SDS011;54537;47.972;11.662;2023-05-07T00:24:20;8.90;;;4.10;;
66437;SDS011;54537;47.972;11.662;2023-05-07T00:26:47;9.45;;;5.05;;
66437;SDS011;54537;47.972;11.662;2023-05-07T00:29:15;11.38;;;5.65;;
66437;SDS011;54537;47.972;11.662;2023-05-07T00:31:41;12.85;;;5.13;;
66437;SDS011;54537;47.972;11.662;2023-05-07T00:34:08;9.65;;;4.97;;
66437;SDS011;54537;47.972;11.662;2023-05-07T00:36:34;10.50;;;5.00;;
66437;SDS011;54537;47.972;11.662;2023-05-07T00:39:01;10.23;;;4.70;;
66437;SDS011;54537;47.972;11.662;2023-05-07T00:41:28;9.15;;;5.20;;
66437;SDS011;54537;47.972;11.662;2023-05-07T00:43:55;11.73;;;5.28;;
66437;SDS011;54537;47.972;11.662;2023-05-07T00:46:23;9.10;;;4.47;;
66437;SDS011;54537;47.972;11.662;2023-05-07T00:48:49;7.90;;;4.53;;
66437;SDS011;54537;47.972;11.662;2023-05-07T00:51:16;11.85;;;4.93;;
66437;SDS011;54537;47.972;11.662;2023-05-07T00:53:43;9.85;;;4.63;;
66437;SDS011;54537;47.972;11.662;2023-05-07T00:56:10;11.68;;;4.50;;
66437;SDS011;54537;47.972;11.662;2023-05-07T00:58:37;7.10;;;4.20;;
66437;SDS011;54537;47.972;11.662;2023-05-07T01:01:03;7.82;;;4.30;;
66437;SDS011;54537;47.972;11.662;2023-05-07T01:03:31;9.45;;;4.47;;
66437;SDS011;54537;47.972;11.662;2023-05-07T01:05:57;8.73;;;4.90;;
66437;SDS011;54537;47.972;11.662;2023-05-07T01:08:25;9.00;;;5.13;;
66437;SDS011;54537;47.972;11.662;2023-05-07T01:10:53;7.35;;;4.30;;
66437;SDS011;54537;47.972;11.662;2023-05-07T01:13:20;10.25;;;4.53;;
66437;SDS011;54537;47.972;11.662;2023-05-07T01:15:47;8.18;;;4.85;;
66437;SDS011;54537;47.972;11.662;2023-05-07T01:18:13;8.98;;;4.78;;
66437;SDS011;54537;47.972;11.662;2023-05-07T01:20:41;8.93;;;4.90;;
66437;SDS011;54537;47.972;11.662;2023-05-07T01:23:09;7.20;;;4.28;;
66437;SDS011;54537;47.972;11.662;2023-05-07T01:25:37;9.50;;;4.80;;
66437;SDS011;54537;47.972;11.662;2023-05-07T01:28:03;8.60;;;4.88;;
66437;SDS011;54537;47.972;11.662;2023-05-07T01:30:30;10.23;;;4.80;;
66437;SDS011;54537;47.972;11.662;2023-05-07T01:32:58;10.15;;;5.30;;
66437;SDS011;54537;47.972;11.662;2023-05-07T01:35:29;7.47;;;4.40;;
66437;SDS011;54537;47.972;11.662;2023-05-07T01:37:58;9.77;;;4.60;;
66437;SDS011;54537;47.972;11.662;2023-05-07T01:40:26;7.70;;;4.15;;
66437;SDS011;54537;47.972;11.662;2023-05-07T01:42:53;10.38;;;4.35;;
66437;SDS011;54537;47.972;11.662;2023-05-07T01:45:20;7.90;;;4.70;;
66437;SDS011;54537;47.972;11.662;2023-05-07T01:47:46;10.77;;;4.68;;
66437;SDS011;54537;47.972;11.662;2023-05-07T01:50:13;7.32;;;4.30;;
66437;SDS011;54537;47.972;11.662;2023-05-07T01:52:42;6.68;;;3.90;;
66437;SDS011;54537;47.972;11.662;2023-05-07T01:55:08;8.63;;;4.57;;
66437;SDS011;54537;47.972;11.662;2023-05-07T01:57:36;9.98;;;4.72;;
66437;SDS011;54537;47.972;11.662;2023-05-07T02:00:03;7.53;;;3.88;;
66437;SDS011;54537;47.972;11.662;2023-05-07T02:02:30;9.15;;;4.10;;
66437;SDS011;54537;47.972;11.662;2023-05-07T02:04:57;7.13;;;4.20;;
66437;SDS011;54537;47.972;11.662;2023-05-07T02:07:24;7.75;;;3.85;;
66437;SDS011;54537;47.972;11.662;2023-05-07T02:09:51;7.40;;;4.20;;
66437;SDS011;54537;47.972;11.662;2023-05-07T02:12:17;11.27;;;4.15;;
66437;SDS011;54537;47.972;11.662;2023-05-07T02:14:45;7.43;;;4.13;;
66437;SDS011;54537;47.972;11.662;2023-05-07T02:17:11;9.05;;;4.00;;
66437;SDS011;54537;47.972;11.662;2023-05-07T02:19:38;6.82;;;3.63;;
66437;SDS011;54537;47.972;11.662;2023-05-07T02:22:04;7.38;;;3.72;;
66437;SDS011;54537;47.972;11.662;2023-05-07T02:24:31;10.27;;;4.40;;
66437;SDS011;54537;47.972;11.662;2023-05-07T02:26:57;8.50;;;4.18;;
66437;SDS011;54537;47.972;11.662;2023-05-07T02:29:23;9.02;;;4.18;;
66437;SDS011;54537;47.972;11.662;2023-05-07T02:31:51;9.02;;;4.68;;
66437;SDS011;54537;47.972;11.662;2023-05-07T02:34:18;8.75;;;4.88;;
66437;SDS011;54537;47.972;11.662;2023-05-07T02:36:45;8.02;;;4.32;;
66437;SDS011;54537;47.972;11.662;2023-05-07T02:39:11;6.50;;;4.00;;
66437;SDS011;54537;47.972;11.662;2023-05-07T02:41:38;7.85;;;4.53;;
66437;SDS011;54537;47.972;11.662;2023-05-07T02:44:04;11.77;;;4.60;;
66437;SDS011;54537;47.972;11.662;2023-05-07T02:46:31;7.40;;;4.55;;
66437;SDS011;54537;47.972;11.662;2023-05-07T02:48:59;8.98;;;4.63;;
66437;SDS011;54537;47.972;11.662;2023-05-07T02:51:26;10.20;;;4.43;;
66437;SDS011;54537;47.972;11.662;2023-05-07T02:53:52;11.40;;;5.88;;
66437;SDS011;54537;47.972;11.662;2023-05-07T02:56:20;9.07;;;5.22;;
66437;SDS011;54537;47.972;11.662;2023-05-07T02:58:46;9.63;;;5.07;;
66437;SDS011;54537;47.972;11.662;2023-05-07T03:01:13;12.55;;;5.18;;
66437;SDS011;54537;47.972;11.662;2023-05-07T03:03:39;9.27;;;5.00;;
66437;SDS011;54537;47.972;11.662;2023-05-07T03:06:07;11.32;;;6.47;;
66437;SDS011;54537;47.972;11.662;2023-05-07T03:08:34;9.65;;;4.30;;
66437;SDS011;54537;47.972;11.662;2023-05-07T03:11:01;9.38;;;5.13;;
66437;SDS011;54537;47.972;11.662;2023-05-07T03:13:27;11.45;;;6.03;;
66437;SDS011;54537;47.972;11.662;2023-05-07T03:15:54;9.20;;;5.45;;
66437;SDS011;54537;47.972;11.662;2023-05-07T03:18:20;9.18;;;4.43;;
66437;SDS011;54537;47.972;11.662;2023-05-07T03:20:47;7.82;;;4.20;;
66437;SDS011;54537;47.972;11.662;2023-05-07T03:23:15;8.02;;;4.60;;
66437;SDS011;54537;47.972;11.662;2023-05-07T03:25:42;8.15;;;4.38;;
66437;SDS011;54537;47.972;11.662;2023-05-07T03:28:08;7.22;;;4.28;;
66437;SDS011;54537;47.972;11.662;2023-05-07T03:30:35;7.90;;;4.40;;
66437;SDS011;54537;47.972;11.662;2023-05-07T03:33:01;9.10;;;4.88;;
66437;SDS011;54537;47.972;11.662;2023-05-07T03:35:28;9.80;;;4.57;;
66437;SDS011;54537;47.972;11.662;2023-05-07T03:37:54;10.57;;;4.53;;
66437;SDS011;54537;47.972;11.662;2023-05-07T03:40:22;7.25;;;4.20;;
66437;SDS011;54537;47.972;11.662;2023-05-07T03:42:48;8.82;;;4.53;;
66437;SDS011;54537;47.972;11.662;2023-05-07T03:45:15;7.70;;;4.22;;
66437;SDS011;54537;47.972;11.662;2023-05-07T03:47:41;9.32;;;4.53;;
66437;SDS011;54537;47.972;11.662;2023-05-07T03:50:08;9.10;;;4.53;;
66437;SDS011;54537;47.972;11.662;2023-05-07T03:52:36;6.38;;;3.60;;
66437;SDS011;54537;47.972;11.662;2023-05-07T03:55:02;10.27;;;4.10;;
66437;SDS011;54537;47.972;11.662;2023-05-07T03:57:30;8.07;;;4.05;;
66437;SDS011;54537;47.972;11.662;2023-05-07T03:59:57;6.53;;;4.15;;
66437;SDS011;54537;47.972;11.662;2023-05-07T04:02:23;7.40;;;4.22;;
66437;SDS011;54537;47.972;11.662;2023-05-07T04:04:50;7.63;;;3.75;;
66437;SDS011;54537;47.972;11.662;2023-05-07T04:07:16;8.73;;;4.93;;
66437;SDS011;54537;47.972;11.662;2023-05-07T04:09:43;11.98;;;5.63;;
66437;SDS011;54537;47.972;11.662;2023-05-07T04:12:09;10.23;;;5.47;;
66437;SDS011;54537;47.972;11.662;2023-05-07T04:14:37;11.88;;;5.93;;
66437;SDS011;54537;47.972;11.662;2023-05-07T04:17:03;10.13;;;5.32;;
66437;SDS011;54537;47.972;11.662;2023-05-07T04:19:32;12.50;;;5.82;;
66437;SDS011;54537;47.972;11.662;2023-05-07T04:21:59;13.98;;;6.22;;
66437;SDS011;54537;47.972;11.662;2023-05-07T04:24:25;14.52;;;5.63;;
66437;SDS011;54537;47.972;11.662;2023-05-07T04:26:52;12.50;;;5.45;;
66437;SDS011;54537;47.972;11.662;2023-05-07T04:29:20;9.73;;;4.68;;
66437;SDS011;54537;47.972;11.662;2023-05-07T04:31:47;11.13;;;4.15;;
66437;SDS011;54537;47.972;11.662;2023-05-07T04:34:14;8.70;;;4.47;;
66437;SDS011;54537;47.972;11.662;2023-05-07T04:36:41;10.50;;;4.55;;
66437;SDS011;54537;47.972;11.662;2023-05-07T04:39:08;8.82;;;4.35;;
66437;SDS011;54537;47.972;11.662;2023-05-07T04:41:35;8.77;;;4.60;;
66437;SDS011;54537;47.972;11.662;2023-05-07T04:44:02;8.48;;;4.43;;
66437;SDS011;54537;47.972;11.662;2023-05-07T04:46:29;9.35;;;4.55;;
66437;SDS011;54537;47.972;11.662;2023-05-07T04:48:57;8.57;;;4.63;;
66437;SDS011;54537;47.972;11.662;2023-05-07T04:51:24;8.55;;;4.20;;
66437;SDS011;54537;47.972;11.662;2023-05-07T04:53:50;10.48;;;4.40;;
66437;SDS011;54537;47.972;11.662;2023-05-07T04:56:17;8.63;;;4.22;;
66437;SDS011;54537;47.972;11.662;2023-05-07T04:58:43;5.72;;;3.55;;
66437;SDS011;54537;47.972;11.662;2023-05-07T05:01:09;11.75;;;4.72;;
66437;SDS011;54537;47.972;11.662;2023-05-07T05:03:36;8.07;;;4.45;;
66437;SDS011;54537;47.972;11.662;2023-05-07T05:06:04;9.02;;;4.50;;
66437;SDS011;54537;47.972;11.662;2023-05-07T05:08:30;10.55;;;5.05;;
66437;SDS011;54537;47.972;11.662;2023-05-07T05:10:57;9.35;;;4.95;;
66437;SDS011;54537;47.972;11.662;2023-05-07T05:13:23;9.13;;;4.65;;
66437;SDS011;54537;47.972;11.662;2023-05-07T05:15:50;9.20;;;3.90;;
66437;SDS011;54537;47.972;11.662;2023-05-07T05:18:16;6.93;;;3.72;;
66437;SDS011;54537;47.972;11.662;2023-05-07T05:20:43;6.32;;;3.42;;
66437;SDS011;54537;47.972;11.662;2023-05-07T05:23:10;9.75;;;3.30;;
66437;SDS011;54537;47.972;11.662;2023-05-07T05:25:37;8.88;;;3.58;;
66437;SDS011;54537;47.972;11.662;2023-05-07T05:28:04;7.00;;;3.58;;
66437;SDS011;54537;47.972;11.662;2023-05-07T05:30:30;6.03;;;3.65;;
66437;SDS011;54537;47.972;11.662;2023-05-07T05:32:57;7.93;;;3.55;;
66437;SDS011;54537;47.972;11.662;2023-05-07T05:35:23;7.95;;;4.00;;
66437;SDS011;54537;47.972;11.662;2023-05-07T05:37:50;8.77;;;4.22;;
66437;SDS011;54537;47.972;11.662;2023-05-07T05:40:18;6.55;;;3.75;;
66437;SDS011;54537;47.972;11.662;2023-05-07T05:42:44;6.28;;;3.85;;
66437;SDS011;54537;47.972;11.662;2023-05-07T05:45:11;7.00;;;4.25;;
66437;SDS011;54537;47.972;11.662;2023-05-07T05:47:37;5.75;;;3.28;;
66437;SDS011;54537;47.972;11.662;2023-05-07T05:50:05;7.60;;;4.03;;
66437;SDS011;54537;47.972;11.662;2023-05-07T05:52:32;6.20;;;3.10;;
66437;SDS011;54537;47.972;11.662;2023-05-07T05:54:58;6.47;;;3.15;;
66437;SDS011;54537;47.972;11.662;2023-05-07T05:57:26;5.40;;;3.40;;
66437;SDS011;54537;47.972;11.662;2023-05-07T05:59:52;5.10;;;3.33;;
66437;SDS011;54537;47.972;11.662;2023-05-07T06:02:19;7.78;;;3.22;;
66437;SDS011;54537;47.972;11.662;2023-05-07T06:04:46;6.13;;;2.88;;
66437;SDS011;54537;47.972;11.662;2023-05-07T06:07:12;5.28;;;2.92;;
66437;SDS011;54537;47.972;11.662;2023-05-07T06:09:39;5.40;;;3.00;;
66437;SDS011;54537;47.972;11.662;2023-05-07T06:12:05;5.43;;;3.15;;
66437;SDS011;54537;47.972;11.662;2023-05-07T06:14:33;5.57;;;3.30;;
66437;SDS011;54537;47.972;11.662;2023-05-07T06:17:00;5.57;;;3.35;;
66437;SDS011;54537;47.972;11.662;2023-05-07T06:19:26;6.63;;;2.92;;
66437;SDS011;54537;47.972;11.662;2023-05-07T06:21:53;5.35;;;2.40;;
66437;SDS011;54537;47.972;11.662;2023-05-07T06:24:21;6.22;;;2.60;;
66437;SDS011;54537;47.972;11.662;2023-05-07T06:26:47;5.38;;;2.42;;
66437;SDS011;54537;47.972;11.662;2023-05-07T06:29:14;5.65;;;2.40;;
66437;SDS011;54537;47.972;11.662;2023-05-07T06:31:42;7.25;;;2.35;;
66437;SDS011;54537;47.972;11.662;2023-05-07T06:34:09;4.97;;;2.97;;
66437;SDS011;54537;47.972;11.662;2023-05-07T06:36:39;6.15;;;2.45;;
66437;SDS011;54537;47.972;11.662;2023-05-07T06:39:05;6.32;;;2.90;;
66437;SDS011;54537;47.972;11.662;2023-05-07T06:41:32;4.43;;;2.97;;
66437;SDS011;54537;47.972;11.662;2023-05-07T06:43:59;4.90;;;2.15;;
66437;SDS011;54537;47.972;11.662;2023-05-07T06:46:26;4.60;;;2.80;;
66437;SDS011;54537;47.972;11.662;2023-05-07T06:48:54;5.03;;;2.70;;
66437;SDS011;54537;47.972;11.662;2023-05-07T06:51:21;5.05;;;2.72;;
66437;SDS011;54537;47.972;11.662;2023-05-07T06:53:48;6.60;;;2.85;;
66437;SDS011;54537;47.972;11.662;2023-05-07T06:56:14;7.47;;;2.97;;
66437;SDS011;54537;47.972;11.662;2023-05-07T06:58:41;5.03;;;2.67;;
66437;SDS011;54537;47.972;11.662;2023-05-07T07:01:07;5.63;;;2.65;;
66437;SDS011;54537;47.972;11.662;2023-05-07T07:03:34;4.50;;;2.58;;
66437;SDS011;54537;47.972;11.662;2023-05-07T07:06:02;3.58;;;2.65;;
66437;SDS011;54537;47.972;11.662;2023-05-07T07:08:28;4.10;;;1.98;;
66437;SDS011;54537;47.972;11.662;2023-05-07T07:10:55;6.43;;;2.33;;
66437;SDS011;54537;47.972;11.662;2023-05-07T07:13:21;3.88;;;2.70;;
66437;SDS011;54537;47.972;11.662;2023-05-07T07:15:48;4.50;;;2.50;;
66437;SDS011;54537;47.972;11.662;2023-05-07T07:18:14;3.95;;;2.30;;
66437;SDS011;54537;47.972;11.662;2023-05-07T07:20:41;5.18;;;2.50;;
66437;SDS011;54537;47.972;11.662;2023-05-07T07:23:10;3.45;;;2.33;;
66437;SDS011;54537;47.972;11.662;2023-05-07T07:25:37;3.63;;;2.13;;
66437;SDS011;54537;47.972;11.662;2023-05-07T07:28:03;4.40;;;2.42;;
66437;SDS011;54537;47.972;11.662;2023-05-07T07:30:31;5.25;;;2.30;;
66437;SDS011;54537;47.972;11.662;2023-05-07T07:32:57;4.32;;;2.65;;
66437;SDS011;54537;47.972;11.662;2023-05-07T07:35:28;5.68;;;2.65;;
66437;SDS011;54537;47.972;11.662;2023-05-07T07:37:54;3.90;;;2.30;;
66437;SDS011;54537;47.972;11.662;2023-05-07T07:40:22;4.28;;;2.25;;
66437;SDS011;54537;47.972;11.662;2023-05-07T07:42:49;6.13;;;2.45;;
66437;SDS011;54537;47.972;11.662;2023-05-07T07:45:15;4.90;;;2.35;;
66437;SDS011;54537;47.972;11.662;2023-05-07T07:47:41;4.35;;;2.15;;
66437;SDS011;54537;47.972;11.662;2023-05-07T07:50:08;5.03;;;2.25;;
66437;SDS011;54537;47.972;11.662;2023-05-07T07:52:35;5.95;;;2.38;;
66437;SDS011;54537;47.972;11.662;2023-05-07T07:55:02;4.85;;;2.60;;
66437;SDS011;54537;47.972;11.662;2023-05-07T07:57:30;3.75;;;2.20;;
66437;SDS011;54537;47.972;11.662;2023-05-07T07:59:57;5.10;;;2.97;;
66437;SDS011;54537;47.972;11.662;2023-05-07T08:02:23;3.78;;;2.63;;
66437;SDS011;54537;47.972;11.662;2023-05-07T08:04:50;5.07;;;2.40;;
66437;SDS011;54537;47.972;11.662;2023-05-07T08:07:16;4.68;;;2.60;;
66437;SDS011;54537;47.972;11.662;2023-05-07T08:09:45;3.78;;;2.38;;
66437;SDS011;54537;47.972;11.662;2023-05-07T08:12:12;5.40;;;2.63;;
66437;SDS011;54537;47.972;11.662;2023-05-07T08:14:40;3.35;;;2.20;;
66437;SDS011;54537;47.972;11.662;2023-05-07T08:17:06;3.78;;;2.35;;
66437;SDS011;54537;47.972;11.662;2023-05-07T08:19:34;3.45;;;2.47;;
66437;SDS011;54537;47.972;11.662;2023-05-07T08:22:02;4.50;;;2.20;;
66437;SDS011;54537;47.972;11.662;2023-05-07T08:24:29;4.80;;;2.55;;
66437;SDS011;54537;47.972;11.662;2023-05-07T08:26:55;4.47;;;2.58;;
66437;SDS011;54537;47.972;11.662;2023-05-07T08:29:22;3.25;;;2.20;;
66437;SDS011;54537;47.972;11.662;2023-05-07T08:31:49;4.93;;;2.20;;
66437;SDS011;54537;47.972;11.662;2023-05-07T08:34:16;4.60;;;2.10;;
66437;SDS011;54537;47.972;11.662;2023-05-07T08:36:42;3.47;;;2.28;;
66437;SDS011;54537;47.972;11.662;2023-05-07T08:39:11;4.40;;;1.88;;
66437;SDS011;54537;47.972;11.662;2023-05-07T08:41:37;6.13;;;2.20;;
66437;SDS011;54537;47.972;11.662;2023-05-07T08:44:04;7.15;;;2.30;;
66437;SDS011;54537;47.972;11.662;2023-05-07T08:46:32;4.32;;;2.20;;
66437;SDS011;54537;47.972;11.662;2023-05-07T08:49:01;3.00;;;1.90;;
66437;SDS011;54537;47.972;11.662;2023-05-07T08:51:28;4.40;;;2.35;;
66437;SDS011;54537;47.972;11.662;2023-05-07T08:53:54;4.35;;;2.45;;
66437;SDS011;54537;47.972;11.662;2023-05-07T08:56:21;3.30;;;2.30;;
66437;SDS011;54537;47.972;11.662;2023-05-07T08:58:47;3.70;;;1.80;;
66437;SDS011;54537;47.972;11.662;2023-05-07T09:01:15;4.05;;;2.20;;
66437;SDS011;54537;47.972;11.662;2023-05-07T09:03:43;3.65;;;2.35;;
66437;SDS011;54537;47.972;11.662;2023-05-07T09:06:12;5.43;;;2.20;;
66437;SDS011;54537;47.972;11.662;2023-05-07T09:08:39;3.70;;;2.30;;
66437;SDS011;54537;47.972;11.662;2023-05-07T09:11:05;3.30;;;2.28;;
66437;SDS011;54537;47.972;11.662;2023-05-07T09:13:32;3.47;;;2.30;;
66437;SDS011;54537;47.972;11.662;2023-05-07T09:15:58;3.88;;;2.00;;
66437;SDS011;54537;47.972;11.662;2023-05-07T09:18:27;4.75;;;1.90;;
66437;SDS011;54537;47.972;11.662;2023-05-07T09:20:54;3.17;;;2.10;;
66437;SDS011;54537;47.972;11.662;2023-05-07T09:23:22;4.68;;;2.60;;
66437;SDS011;54537;47.972;11.662;2023-05-07T09:25:49;4.10;;;1.98;;
66437;SDS011;54537;47.972;11.662;2023-05-07T09:28:15;3.15;;;2.17;;
66437;SDS011;54537;47.972;11.662;2023-05-07T09:30:41;4.03;;;2.38;;
66437;SDS011;54537;47.972;11.662;2023-05-07T09:33:08;6.47;;;2.03;;
66437;SDS011;54537;47.972;11.662;2023-05-07T09:35:34;4.28;;;2.25;;
66437;SDS011;54537;47.972;11.662;2023-05-07T09:38:01;3.25;;;1.95;;
66437;SDS011;54537;47.972;11.662;2023-05-07T09:40:30;4.10;;;2.22;;
66437;SDS011;54537;47.972;11.662;2023-05-07T09:43:07;3.78;;;2.08;;
66437;SDS011;54537;47.972;11.662;2023-05-07T09:45:35;4.72;;;2.10;;
66437;SDS011;54537;47.972;11.662;2023-05-07T09:48:02;3.63;;;2.13;;
66437;SDS011;54537;47.972;11.662;2023-05-07T09:50:32;3.92;;;2.22;;
66437;SDS011;54537;47.972;11.662;2023-05-07T09:55:29;3.22;;;1.90;;
66437;SDS011;54537;47.972;11.662;2023-05-07T09:57:56;3.10;;;2.10;;
66437;SDS011;54537;47.972;11.662;2023-05-07T10:00:23;2.25;;;1.67;;
66437;SDS011;54537;47.972;11.662;2023-05-07T10:02:51;3.95;;;2.20;;
66437;SDS011;54537;47.972;11.662;2023-05-07T10:05:18;6.03;;;2.45;;
66437;SDS011;54537;47.972;11.662;2023-05-07T10:07:45;7.18;;;2.20;;
66437;SDS011;54537;47.972;11.662;2023-05-07T10:10:12;4.15;;;2.25;;
66437;SDS011;54537;47.972;11.662;2023-05-07T10:12:40;4.38;;;2.20;;
66437;SDS011;54537;47.972;11.662;2023-05-07T10:15:07;16.05;;;2.55;;
66437;SDS011;54537;47.972;11.662;2023-05-07T10:17:35;3.28;;;1.95;;
66437;SDS011;54537;47.972;11.662;2023-05-07T10:20:02;11.95;;;1.90;;
66437;SDS011;54537;47.972;11.662;2023-05-07T10:22:29;3.30;;;1.95;;
66437;SDS011;54537;47.972;11.662;2023-05-07T10:25:18;6.63;;;1.90;;
66437;SDS011;54537;47.972;11.662;2023-05-07T10:27:49;5.13;;;1.73;;
66437;SDS011;54537;47.972;11.662;2023-05-07T10:30:19;4.78;;;2.00;;
66437;SDS011;54537;47.972;11.662;2023-05-07T10:32:51;8.40;;;1.88;;
66437;SDS011;54537;47.972;11.662;2023-05-07T10:35:21;6.53;;;2.30;;
66437;SDS011;54537;47.972;11.662;2023-05-07T10:37:50;3.75;;;1.95;;
66437;SDS011;54537;47.972;11.662;2023-05-07T10:40:17;4.88;;;2.30;;
66437;SDS011;54537;47.972;11.662;2023-05-07T10:42:56;6.32;;;1.83;;
66437;SDS011;54537;47.972;11.662;2023-05-07T10:45:24;6.53;;;2.20;;
66437;SDS011;54537;47.972;11.662;2023-05-07T10:48:07;3.08;;;1.95;;
66437;SDS011;54537;47.972;11.662;2023-05-07T10:50:35;7.65;;;1.75;;
66437;SDS011;54537;47.972;11.662;2023-05-07T10:53:20;4.47;;;2.00;;
66437;SDS011;54537;47.972;11.662;2023-05-07T10:55:53;7.90;;;2.08;;
66437;SDS011;54537;47.972;11.662;2023-05-07T10:58:52;3.72;;;2.13;;
66437;SDS011;54537;47.972;11.662;2023-05-07T11:04:15;4.28;;;1.90;;
66437;SDS011;54537;47.972;11.662;2023-05-07T11:06:44;6.63;;;2.03;;
66437;SDS011;54537;47.972;11.662;2023-05-07T11:09:58;10.60;;;1.90;;
66437;SDS011;54537;47.972;11.662;2023-05-07T11:15:32;4.75;;;1.70;;
66437;SDS011;54537;47.972;11.662;2023-05-07T11:18:00;3.72;;;1.70;;
66437;SDS011;54537;47.972;11.662;2023-05-07T11:26:18;3.45;;;1.40;;
66437;SDS011;54537;47.972;11.662;2023-05-07T11:28:44;3.05;;;1.60;;
66437;SDS011;54537;47.972;11.662;2023-05-07T11:31:12;2.80;;;1.60;;
66437;SDS011;54537;47.972;11.662;2023-05-07T11:33:39;2.75;;;1.80;;
66437;SDS011;54537;47.972;11.662;2023-05-07T11:36:07;3.10;;;1.85;;
66437;SDS011;54537;47.972;11.662;2023-05-07T11:38:34;3.20;;;2.00;;
66437;SDS011;54537;47.972;11.662;2023-05-07T11:41:02;4.80;;;1.88;;
66437;SDS011;54537;47.972;11.662;2023-05-07T11:43:30;3.72;;;1.83;;
66437;SDS011;54537;47.972;11.662;2023-05-07T11:46:04;4.57;;;2.10;;
66437;SDS011;54537;47.972;11.662;2023-05-07T11:48:32;4.25;;;2.03;;
66437;SDS011;54537;47.972;11.662;2023-05-07T11:51:00;4.35;;;1.83;;
66437;SDS011;54537;47.972;11.662;2023-05-07T11:53:27;3.63;;;1.92;;
66437;SDS011;54537;47.972;11.662;2023-05-07T11:56:01;4.10;;;1.88;;
66437;SDS011;54537;47.972;11.662;2023-05-07T11:58:32;2.88;;;1.73;;
66437;SDS011;54537;47.972;11.662;2023-05-07T12:00:58;2.63;;;1.48;;
66437;SDS011;54537;47.972;11.662;2023-05-07T12:03:25;3.67;;;1.83;;
66437;SDS011;54537;47.972;11.662;2023-05-07T12:05:53;3.58;;;2.00;;
66437;SDS011;54537;47.972;11.662;2023-05-07T12:08:20;4.93;;;1.90;;
66437;SDS011;54537;47.972;11.662;2023-05-07T12:10:47;3.00;;;1.67;;
66437;SDS011;54537;47.972;11.662;2023-05-07T12:13:14;4.32;;;1.30;;
66437;SDS011;54537;47.972;11.662;2023-05-07T12:15:41;2.95;;;1.70;;
66437;SDS011;54537;47.972;11.662;2023-05-07T12:18:08;3.35;;;1.90;;
66437;SDS011;54537;47.972;11.662;2023-05-07T12:20:35;2.85;;;1.60;;
66437;SDS011;54537;47.972;11.662;2023-05-07T12:23:03;4.35;;;1.70;;
66437;SDS011;54537;47.972;11.662;2023-05-07T12:25:30;3.63;;;1.80;;
66437;SDS011;54537;47.972;11.662;2023-05-07T12:27:57;3.38;;;2.13;;
66437;SDS011;54537;47.972;11.662;2023-05-07T12:30:23;3.92;;;2.10;;
66437;SDS011;54537;47.972;11.662;2023-05-07T12:32:52;5.22;;;1.88;;
66437;SDS011;54537;47.972;11.662;2023-05-07T12:35:25;3.45;;;1.88;;
66437;SDS011;54537;47.972;11.662;2023-05-07T12:37:54;4.07;;;2.00;;
66437;SDS011;54537;47.972;11.662;2023-05-07T12:40:22;4.13;;;2.00;;
66437;SDS011;54537;47.972;11.662;2023-05-07T12:42:49;5.45;;;1.85;;
66437;SDS011;54537;47.972;11.662;2023-05-07T12:45:19;4.68;;;2.03;;
66437;SDS011;54537;47.972;11.662;2023-05-07T12:47:46;3.63;;;2.03;;
66437;SDS011;54537;47.972;11.662;2023-05-07T12:50:13;3.60;;;1.90;;
66437;SDS011;54537;47.972;11.662;2023-05-07T12:52:40;3.95;;;1.98;;
66437;SDS011;54537;47.972;11.662;2023-05-07T12:55:07;4.50;;;2.10;;
66437;SDS011;54537;47.972;11.662;2023-05-07T12:57:39;4.90;;;1.88;;
66437;SDS011;54537;47.972;11.662;2023-05-07T13:00:06;4.53;;;1.90;;
66437;SDS011;54537;47.972;11.662;2023-05-07T13:02:34;3.75;;;2.30;;
66437;SDS011;54537;47.972;11.662;2023-05-07T13:05:00;4.22;;;2.10;;
66437;SDS011;54537;47.972;11.662;2023-05-07T13:07:27;3.08;;;1.85;;
66437;SDS011;54537;47.972;11.662;2023-05-07T13:09:53;4.15;;;2.13;;
66437;SDS011;54537;47.972;11.662;2023-05-07T13:12:20;2.95;;;2.20;;
66437;SDS011;54537;47.972;11.662;2023-05-07T13:14:47;4.30;;;2.10;;
66437;SDS011;54537;47.972;11.662;2023-05-07T13:17:14;4.20;;;2.20;;
66437;SDS011;54537;47.972;11.662;2023-05-07T13:19:40;3.33;;;1.85;;
66437;SDS011;54537;47.972;11.662;2023-05-07T13:22:07;5.15;;;2.30;;
66437;SDS011;54537;47.972;11.662;2023-05-07T13:24:33;5.13;;;2.47;;
66437;SDS011;54537;47.972;11.662;2023-05-07T13:27:00;4.68;;;2.58;;
66437;SDS011;54537;47.972;11.662;2023-05-07T13:29:26;4.32;;;2.50;;
66437;SDS011;54537;47.972;11.662;2023-05-07T13:31:57;5.30;;;2.80;;
66437;SDS011;54537;47.972;11.662;2023-05-07T13:34:23;5.05;;;2.45;;
66437;SDS011;54537;47.972;11.662;2023-05-07T13:36:50;4.40;;;2.45;;
66437;SDS011;54537;47.972;11.662;2023-05-07T13:39:16;4.05;;;2.50;;
66437;SDS011;54537;47.972;11.662;2023-05-07T13:41:42;3.97;;;2.40;;
66437;SDS011;54537;47.972;11.662;2023-05-07T13:44:09;3.30;;;2.15;;
66437;SDS011;54537;47.972;11.662;2023-05-07T13:46:36;4.43;;;2.67;;
66437;SDS011;54537;47.972;11.662;2023-05-07T13:49:04;5.43;;;2.78;;
66437;SDS011;54537;47.972;11.662;2023-05-07T13:51:30;5.60;;;2.30;;
66437;SDS011;54537;47.972;11.662;2023-05-07T13:53:57;5.15;;;2.92;;
66437;SDS011;54537;47.972;11.662;2023-05-07T13:56:23;4.60;;;2.80;;
66437;SDS011;54537;47.972;11.662;2023-05-07T13:58:50;3.92;;;2.47;;
66437;SDS011;54537;47.972;11.662;2023-05-07T14:01:16;4.05;;;2.65;;
66437;SDS011;54537;47.972;11.662;2023-05-07T14:03:43;5.90;;;2.60;;
66437;SDS011;54537;47.972;11.662;2023-05-07T14:06:11;4.25;;;2.83;;
66437;SDS011;54537;47.972;11.662;2023-05-07T14:08:37;6.55;;;2.40;;
66437;SDS011;54537;47.972;11.662;2023-05-07T14:11:04;5.55;;;2.97;;
66437;SDS011;54537;47.972;11.662;2023-05-07T14:13:31;4.05;;;2.58;;
66437;SDS011;54537;47.972;11.662;2023-05-07T14:15:59;5.70;;;2.70;;
66437;SDS011;54537;47.972;11.662;2023-05-07T14:18:25;5.60;;;3.00;;
66437;SDS011;54537;47.972;11.662;2023-05-07T14:20:53;3.78;;;2.65;;
66437;SDS011;54537;47.972;11.662;2023-05-07T14:23:21;4.22;;;2.63;;
66437;SDS011;54537;47.972;11.662;2023-05-07T14:25:51;5.35;;;2.65;;
66437;SDS011;54537;47.972;11.662;2023-05-07T14:28:18;5.18;;;2.63;;
66437;SDS011;54537;47.972;11.662;2023-05-07T14:30:44;5.03;;;2.95;;
66437;SDS011;54537;47.972;11.662;2023-05-07T14:33:11;4.53;;;2.50;;
66437;SDS011;54537;47.972;11.662;2023-05-07T14:35:37;4.68;;;2.67;;
66437;SDS011;54537;47.972;11.662;2023-05-07T14:38:04;5.53;;;2.58;;
66437;SDS011;54537;47.972;11.662;2023-05-07T14:40:31;4.82;;;2.53;;
66437;SDS011;54537;47.972;11.662;2023-05-07T14:42:58;5.50;;;2.67;;
66437;SDS011;54537;47.972;11.662;2023-05-07T14:45:25;5.97;;;2.53;;
66437;SDS011;54537;47.972;11.662;2023-05-07T14:47:51;11.43;;;2.75;;
66437;SDS011;54537;47.972;11.662;2023-05-07T14:50:18;11.25;;;2.80;;